Time;durP1;ratioP1;P1;durP2;ratioP2;P2;SDS_P1;SDS_P2;PMS_P1;PMS_P2;Temp;Humidity;BMP_temperature;BMP_pressure;BME280_temperature;BME280_humidity;BME280_pressure;Samples;Min_cycle;Max_cycle;Signal;HPM_P1;HPM_P2
2023/06/02 00:02:14;;;;;;;43.03;40.63;;;12.80;99.90;;;;;;5250750;28;20075;-70
2023/06/02 00:04:45;;;;;;;46.85;44.25;;;12.70;99.90;;;;;;5250536;28;20039;-68
2023/06/02 00:07:16;;;;;;;43.20;40.50;;;12.70;99.90;;;;;;5250564;28;20029;-70
2023/06/02 00:09:47;;;;;;;43.70;41.28;;;12.70;99.90;;;;;;5250407;28;20803;-70
2023/06/02 00:12:18;;;;;;;41.33;38.97;;;12.60;99.90;;;;;;5250510;28;20021;-70
2023/06/02 00:14:49;;;;;;;42.00;39.38;;;12.60;99.90;;;;;;5250215;28;20025;-68
2023/06/02 00:17:20;;;;;;;43.70;41.30;;;12.90;99.90;;;;;;5250312;28;20114;-71
2023/06/02 00:19:51;;;;;;;38.97;36.75;;;12.70;99.90;;;;;;5250121;28;20062;-66
2023/06/02 00:22:22;;;;;;;41.15;38.80;;;12.30;99.90;;;;;;5250412;28;20365;-70
2023/06/02 00:24:52;;;;;;;44.40;41.95;;;12.60;99.90;;;;;;5250256;28;20468;-71
2023/06/02 00:27:23;;;;;;;47.80;45.20;;;12.80;99.90;;;;;;5250109;28;20040;-70
2023/06/02 00:29:54;;;;;;;46.78;44.17;;;12.50;99.90;;;;;;5250144;28;20036;-70
2023/06/02 00:32:25;;;;;;;49.22;46.40;;;12.70;99.90;;;;;;5250113;28;20154;-70
2023/06/02 00:34:56;;;;;;;45.72;43.08;;;12.40;99.90;;;;;;5249882;28;20415;-70
2023/06/02 00:37:27;;;;;;;50.90;48.00;;;12.40;99.90;;;;;;5231989;28;20118;-66
2023/06/02 00:39:58;;;;;;;50.58;47.88;;;12.30;99.90;;;;;;5249820;28;20071;-70
2023/06/02 00:42:29;;;;;;;52.55;49.55;;;12.30;99.90;;;;;;5250098;28;20027;-71
2023/06/02 00:44:59;;;;;;;48.50;45.60;;;12.30;99.90;;;;;;5249874;28;20028;-70
2023/06/02 00:47:30;;;;;;;48.90;46.20;;;12.40;99.90;;;;;;5249546;28;20048;-66
2023/06/02 00:50:01;;;;;;;46.92;44.38;;;12.40;99.90;;;;;;5249795;28;20044;-70
2023/06/02 00:52:33;;;;;;;47.20;44.63;;;12.50;99.90;;;;;;5231824;28;20031;-65
2023/06/02 00:55:05;;;;;;;49.40;46.70;;;12.40;99.90;;;;;;5249930;28;20032;-65
2023/06/02 00:57:40;;;;;;;46.67;43.92;;;12.30;99.90;;;;;;5250004;28;20083;-70
2023/06/02 01:00:11;;;;;;;53.55;50.35;;;12.20;99.90;;;;;;5248964;28;20035;-70
2023/06/02 01:02:42;;;;;;;48.83;46.22;;;12.30;99.90;;;;;;5249759;28;20025;-70
2023/06/02 01:05:14;;;;;;;48.05;45.25;;;12.40;99.90;;;;;;5249505;28;20028;-71
2023/06/02 01:07:47;;;;;;;45.08;42.50;;;12.40;99.90;;;;;;5249446;28;20036;-70
2023/06/02 01:10:19;;;;;;;50.97;48.17;;;12.20;99.90;;;;;;5249489;28;20032;-70
2023/06/02 01:12:50;;;;;;;46.55;44.05;;;12.00;99.90;;;;;;5249366;28;20031;-70
2023/06/02 01:15:21;;;;;;;49.03;46.22;;;12.30;99.90;;;;;;5249170;28;20472;-70
2023/06/02 01:17:53;;;;;;;52.60;49.50;;;12.00;99.90;;;;;;5249227;28;20032;-70
2023/06/02 01:20:25;;;;;;;48.58;45.88;;;12.10;99.90;;;;;;5249290;28;20419;-70
2023/06/02 01:23:18;;;;;;;46.35;43.78;;;12.20;99.90;;;;;;5249169;28;20029;-70
2023/06/02 01:25:53;;;;;;;49.90;47.13;;;12.20;99.90;;;;;;5249101;28;20065;-70
2023/06/02 01:28:26;;;;;;;47.97;45.38;;;12.20;99.90;;;;;;5248920;28;20047;-70
2023/06/02 01:31:18;;;;;;;47.95;45.25;;;12.10;99.90;;;;;;5249058;28;20103;-70
2023/06/02 01:34:35;;;;;;;50.30;47.50;;;12.00;99.90;;;;;;5248954;28;20118;-69
2023/06/02 01:37:07;;;;;;;47.90;45.25;;;12.00;99.90;;;;;;5235428;28;20071;-70
2023/06/02 01:39:40;;;;;;;45.83;43.33;;;12.20;99.90;;;;;;5230733;28;20077;-71
2023/06/02 01:42:12;;;;;;;48.22;45.50;;;12.30;99.90;;;;;;5248773;28;20023;-70
2023/06/02 01:44:44;;;;;;;49.40;46.70;;;12.10;99.90;;;;;;5248560;28;20035;-68
2023/06/02 01:47:15;;;;;;;45.25;42.75;;;11.90;99.90;;;;;;5248307;28;20039;-69
2023/06/02 01:49:46;;;;;;;48.92;46.22;;;11.80;99.90;;;;;;5248645;28;20036;-70
2023/06/02 01:52:17;;;;;;;44.25;41.75;;;11.90;99.90;;;;;;5230615;28;20052;-70
2023/06/02 01:54:48;;;;;;;49.88;46.88;;;11.90;99.90;;;;;;5248319;28;20109;-66
2023/06/02 01:57:19;;;;;;;47.03;44.22;;;11.70;99.90;;;;;;5248368;28;20028;-70
2023/06/02 01:59:50;;;;;;;46.67;44.10;;;11.80;99.90;;;;;;5248369;28;20158;-70
2023/06/02 02:02:21;;;;;;;45.53;42.95;;;11.90;99.90;;;;;;5248240;28;20103;-70
2023/06/02 02:04:51;;;;;;;44.13;41.63;;;11.60;99.90;;;;;;5248213;28;20013;-70
2023/06/02 02:07:23;;;;;;;43.30;40.88;;;11.80;99.90;;;;;;5248457;28;20036;-66
2023/06/02 02:09:55;;;;;;;48.45;45.75;;;11.60;99.90;;;;;;5248636;28;20037;-66
2023/06/02 02:12:26;;;;;;;46.78;44.17;;;11.90;99.90;;;;;;5248351;28;20013;-70
2023/06/02 02:15:00;;;;;;;45.53;42.92;;;11.80;99.90;;;;;;5230178;28;20024;-70
2023/06/02 02:17:31;;;;;;;44.53;42.00;;;11.70;99.90;;;;;;5247898;28;20020;-70
2023/06/02 02:20:05;;;;;;;46.65;43.85;;;11.40;99.90;;;;;;5247923;28;20145;-70
2023/06/02 02:22:36;;;;;;;44.42;41.97;;;11.60;99.90;;;;;;5248003;28;20373;-69
2023/06/02 02:25:08;;;;;;;43.83;41.13;;;11.90;99.90;;;;;;5229897;28;20030;-70
2023/06/02 02:27:39;;;;;;;46.83;44.22;;;11.90;99.90;;;;;;5247867;28;20154;-70
2023/06/02 02:30:10;;;;;;;42.72;40.20;;;11.70;99.90;;;;;;5247675;28;20459;-70
2023/06/02 02:32:44;;;;;;;41.05;38.78;;;11.60;99.90;;;;;;5247753;28;20154;-70
2023/06/02 02:35:15;;;;;;;41.90;39.60;;;11.60;99.90;;;;;;5247671;28;20111;-66
2023/06/02 02:37:46;;;;;;;38.50;36.47;;;11.60;99.90;;;;;;5247663;28;20096;-69
2023/06/02 02:40:17;;;;;;;41.15;38.83;;;11.70;99.90;;;;;;5247541;28;20028;-70
2023/06/02 02:42:48;;;;;;;40.10;37.80;;;11.70;99.90;;;;;;5247591;28;20142;-70
2023/06/02 02:45:20;;;;;;;45.50;42.90;;;11.70;99.90;;;;;;5247456;28;20434;-70
2023/06/02 02:47:51;;;;;;;43.90;41.35;;;11.70;99.90;;;;;;5247136;28;20094;-70
2023/06/02 02:50:21;;;;;;;43.03;40.28;;;11.90;99.90;;;;;;5247385;28;20066;-70
2023/06/02 02:52:52;;;;;;;44.88;42.47;;;11.90;99.90;;;;;;5247274;28;20035;-70
2023/06/02 02:55:23;;;;;;;43.42;40.92;;;11.70;99.90;;;;;;5247311;28;20028;-70
2023/06/02 02:57:55;;;;;;;40.97;38.67;;;11.60;99.90;;;;;;5247466;28;20021;-70
2023/06/02 03:00:27;;;;;;;42.50;40.08;;;11.80;99.90;;;;;;5247151;28;20021;-70
2023/06/02 03:03:01;;;;;;;40.72;38.45;;;11.70;99.90;;;;;;5247290;28;20028;-66
2023/06/02 03:05:34;;;;;;;42.55;40.15;;;11.80;99.90;;;;;;5247251;28;20602;-66
2023/06/02 03:08:07;;;;;;;39.03;36.83;;;11.40;99.90;;;;;;5247320;28;20054;-67
2023/06/02 03:10:38;;;;;;;39.33;37.08;;;11.20;99.90;;;;;;5247270;28;20372;-70
2023/06/02 03:13:08;;;;;;;36.53;34.42;;;11.00;99.90;;;;;;5247339;28;20024;-70
2023/06/02 03:15:39;;;;;;;34.58;32.47;;;11.00;99.90;;;;;;5246952;28;20388;-70
2023/06/02 03:18:11;;;;;;;34.42;32.55;;;11.50;99.90;;;;;;5247048;28;20036;-70
2023/06/02 03:20:41;;;;;;;34.80;32.50;;;11.50;99.90;;;;;;5247002;28;20400;-67
2023/06/02 03:23:12;;;;;;;32.30;30.50;;;11.70;99.90;;;;;;5246912;28;20040;-70
2023/06/02 03:25:43;;;;;;;36.92;34.92;;;11.80;99.90;;;;;;5247501;28;20108;-65
2023/06/02 03:28:14;;;;;;;34.72;32.70;;;12.00;99.90;;;;;;5247117;28;20040;-71
2023/06/02 03:30:45;;;;;;;38.55;36.47;;;12.10;99.90;;;;;;5247207;28;20531;-68
2023/06/02 03:33:16;;;;;;;34.55;32.60;;;12.00;99.90;;;;;;5247181;28;20100;-70
2023/06/02 03:35:48;;;;;;;37.90;35.80;;;12.00;99.90;;;;;;5247002;28;20024;-70
2023/06/02 03:38:19;;;;;;;38.70;36.55;;;11.90;99.90;;;;;;5246869;28;20028;-67
2023/06/02 03:40:51;;;;;;;38.05;35.85;;;11.90;99.90;;;;;;5246850;28;20024;-70
2023/06/02 03:43:21;;;;;;;41.88;39.28;;;12.20;99.90;;;;;;5246983;28;20333;-70
2023/06/02 03:45:52;;;;;;;43.40;40.95;;;12.30;99.90;;;;;;5246780;28;20414;-67
2023/06/02 03:48:23;;;;;;;43.78;41.33;;;12.50;99.90;;;;;;5246420;28;20049;-70
2023/06/02 03:50:54;;;;;;;39.90;37.70;;;12.60;99.90;;;;;;5246784;28;20032;-70
2023/06/02 03:53:25;;;;;;;41.88;39.38;;;12.70;99.90;;;;;;5246813;28;20103;-69
2023/06/02 03:55:55;;;;;;;41.30;38.65;;;12.70;99.90;;;;;;5246681;28;20066;-70
2023/06/02 03:58:26;;;;;;;43.60;41.05;;;12.90;99.90;;;;;;5246776;28;20027;-70
2023/06/02 04:00:58;;;;;;;42.00;39.67;;;12.90;99.90;;;;;;5246741;28;20020;-70
2023/06/02 04:03:29;;;;;;;42.42;40.03;;;12.90;99.90;;;;;;5246674;28;20077;-69
2023/06/02 04:06:00;;;;;;;44.05;41.55;;;12.90;99.90;;;;;;5246670;28;20028;-69
2023/06/02 04:08:32;;;;;;;39.95;37.55;;;12.90;99.90;;;;;;5228461;28;20036;-70
2023/06/02 04:11:04;;;;;;;42.42;39.97;;;12.90;99.90;;;;;;5246650;28;20059;-69
2023/06/02 04:13:35;;;;;;;40.67;38.38;;;13.10;99.90;;;;;;5246591;28;20083;-69
2023/06/02 04:16:07;;;;;;;40.70;37.97;;;13.10;99.90;;;;;;5246469;28;20056;-70
2023/06/02 04:18:39;;;;;;;42.00;39.60;;;13.20;99.90;;;;;;5246438;28;20108;-68
2023/06/02 04:21:09;;;;;;;40.03;37.72;;;13.40;99.90;;;;;;5246524;28;20032;-69
2023/06/02 04:23:40;;;;;;;34.88;32.95;;;13.60;99.90;;;;;;5246457;28;20020;-69
2023/06/02 04:26:11;;;;;;;33.97;32.08;;;13.60;99.90;;;;;;5246345;28;20020;-70
2023/06/02 04:28:42;;;;;;;34.90;32.90;;;13.60;99.90;;;;;;5246408;28;20503;-66
2023/06/02 04:31:13;;;;;;;31.67;29.83;;;13.70;99.90;;;;;;5246505;28;20491;-66
2023/06/02 04:33:44;;;;;;;31.05;29.25;;;13.70;99.90;;;;;;5246760;28;20040;-70
2023/06/02 04:36:15;;;;;;;29.60;27.70;;;14.00;99.90;;;;;;5250252;28;20480;-69
2023/06/02 04:38:46;;;;;;;27.65;26.05;;;14.20;99.90;;;;;;5250095;28;20069;-70
2023/06/02 04:41:17;;;;;;;26.25;24.65;;;14.30;99.90;;;;;;5250037;28;20035;-66
2023/06/02 04:43:48;;;;;;;26.98;25.38;;;14.40;99.90;;;;;;5250081;28;20360;-66
2023/06/02 04:46:19;;;;;;;26.45;24.85;;;14.60;99.90;;;;;;5249927;28;20017;-70
2023/06/02 04:48:50;;;;;;;25.60;23.90;;;14.70;99.90;;;;;;5249665;28;20060;-70
2023/06/02 04:51:29;;;;;;;22.45;21.15;;;14.90;99.90;;;;;;5249796;28;20077;-70
2023/06/02 04:54:00;;;;;;;22.60;20.83;;;15.10;99.90;;;;;;5249701;28;20480;-70
2023/06/02 04:56:32;;;;;;;21.00;19.35;;;15.30;99.90;;;;;;5249619;28;20012;-70
2023/06/02 04:59:03;;;;;;;22.80;21.23;;;15.50;99.90;;;;;;5249521;28;20024;-69
2023/06/02 05:01:34;;;;;;;21.45;20.02;;;15.70;99.90;;;;;;5249676;28;20132;-70
2023/06/02 05:04:05;;;;;;;21.38;19.90;;;15.90;99.90;;;;;;5231597;28;20124;-70
2023/06/02 05:06:36;;;;;;;22.27;20.73;;;16.10;99.90;;;;;;5249518;28;20033;-70
2023/06/02 05:09:07;;;;;;;21.80;20.27;;;16.30;99.90;;;;;;5249345;28;20396;-71
2023/06/02 05:11:38;;;;;;;23.00;21.50;;;16.50;99.90;;;;;;5249326;28;20032;-70
2023/06/02 05:14:08;;;;;;;22.92;21.52;;;16.70;99.90;;;;;;5249295;28;20379;-71
2023/06/02 05:16:46;;;;;;;24.70;23.00;;;17.00;99.90;;;;;;5249167;28;20107;-71
2023/06/02 05:19:16;;;;;;;24.08;22.20;;;17.30;99.90;;;;;;5249192;28;20037;-71
2023/06/02 05:21:47;;;;;;;25.70;23.95;;;17.70;99.90;;;;;;5249117;28;20731;-70
2023/06/02 05:24:18;;;;;;;25.70;23.65;;;17.90;99.90;;;;;;5249177;28;20506;-70
2023/06/02 05:26:49;;;;;;;28.20;26.38;;;18.30;99.90;;;;;;5248977;28;20032;-70
2023/06/02 05:29:20;;;;;;;29.42;27.27;;;18.50;99.90;;;;;;5248918;28;20107;-70
2023/06/02 05:31:51;;;;;;;27.13;25.15;;;18.50;99.90;;;;;;5248867;28;20029;-71
2023/06/02 05:34:21;;;;;;;26.85;24.90;;;18.70;99.90;;;;;;5248836;28;20473;-71
2023/06/02 05:36:52;;;;;;;27.13;24.98;;;19.00;99.90;;;;;;5248801;28;20078;-70
2023/06/02 05:39:23;;;;;;;26.35;24.45;;;19.10;99.90;;;;;;5248903;28;20028;-66
2023/06/02 05:41:54;;;;;;;26.35;24.38;;;19.10;99.90;;;;;;5248721;28;20020;-66
2023/06/02 05:44:25;;;;;;;27.13;25.33;;;19.30;99.90;;;;;;5248513;28;20028;-71
2023/06/02 05:46:56;;;;;;;26.63;24.67;;;19.40;99.90;;;;;;5248632;28;20033;-70
2023/06/02 05:49:27;;;;;;;27.52;25.60;;;19.30;99.90;;;;;;5248794;28;20109;-68
2023/06/02 05:51:57;;;;;;;26.42;24.42;;;19.60;99.90;;;;;;5248660;28;20020;-71
2023/06/02 05:54:28;;;;;;;26.48;24.65;;;19.60;99.90;;;;;;5248633;28;20024;-70
2023/06/02 05:56:59;;;;;;;23.85;22.25;;;19.80;99.90;;;;;;5248538;28;20029;-71
2023/06/02 05:59:30;;;;;;;26.38;24.67;;;19.80;99.90;;;;;;5230604;28;20032;-71
2023/06/02 06:02:01;;;;;;;25.67;24.02;;;19.80;99.90;;;;;;5248473;28;20013;-70
2023/06/02 06:04:32;;;;;;;27.70;25.80;;;19.90;99.90;;;;;;5248343;28;20461;-70
2023/06/02 06:07:03;;;;;;;28.17;26.30;;;20.00;99.90;;;;;;5248273;28;20113;-71
2023/06/02 06:09:34;;;;;;;29.35;27.52;;;20.20;99.90;;;;;;5248056;28;20036;-71
2023/06/02 06:12:05;;;;;;;30.20;28.40;;;20.30;99.90;;;;;;5248148;28;20036;-69
2023/06/02 06:14:36;;;;;;;31.63;29.63;;;20.40;99.90;;;;;;5248012;28;20024;-71
2023/06/02 06:17:07;;;;;;;30.42;28.17;;;20.50;99.90;;;;;;5247987;28;20388;-71
2023/06/02 06:19:38;;;;;;;30.38;28.45;;;20.40;99.90;;;;;;5247915;28;20025;-71
2023/06/02 06:22:08;;;;;;;29.00;26.88;;;20.60;99.90;;;;;;5247956;28;20024;-66
2023/06/02 06:24:39;;;;;;;27.90;26.13;;;20.60;99.90;;;;;;5247901;28;20024;-68
2023/06/02 06:27:11;;;;;;;25.23;23.58;;;20.60;99.90;;;;;;5247823;28;20024;-70
2023/06/02 06:29:42;;;;;;;29.80;28.10;;;20.80;99.90;;;;;;5247682;28;20094;-70
2023/06/02 06:32:13;;;;;;;31.67;29.77;;;20.80;99.90;;;;;;5247687;28;20021;-71
2023/06/02 06:34:44;;;;;;;31.30;29.48;;;20.90;99.90;;;;;;5247671;28;20537;-70
2023/06/02 06:37:14;;;;;;;32.22;30.13;;;21.00;99.90;;;;;;5247642;28;20025;-70
2023/06/02 06:39:45;;;;;;;32.42;30.42;;;21.00;99.90;;;;;;5247529;28;20530;-71
2023/06/02 06:42:16;;;;;;;32.90;30.95;;;21.00;99.90;;;;;;5247523;28;20024;-71
2023/06/02 06:44:47;;;;;;;31.70;29.70;;;21.00;99.90;;;;;;5247351;28;20013;-66
2023/06/02 06:47:18;;;;;;;33.70;31.25;;;21.10;99.90;;;;;;5247162;28;20017;-69
2023/06/02 06:49:51;;;;;;;30.65;28.63;;;21.30;99.90;;;;;;5247312;28;20443;-70
2023/06/02 06:52:22;;;;;;;31.08;29.15;;;21.20;99.90;;;;;;5247509;28;20021;-71
2023/06/02 06:54:53;;;;;;;29.58;27.85;;;21.30;99.90;;;;;;5247354;28;20021;-70
2023/06/02 06:57:24;;;;;;;29.33;27.52;;;21.30;99.90;;;;;;5246803;28;20033;-71
2023/06/02 06:59:55;;;;;;;28.77;26.92;;;21.50;99.90;;;;;;5247333;28;20545;-70
2023/06/02 07:02:26;;;;;;;27.60;25.88;;;21.50;99.90;;;;;;5247295;28;20025;-70
2023/06/02 07:04:57;;;;;;;27.17;25.58;;;21.70;99.90;;;;;;5247520;28;20021;-71
2023/06/02 07:07:27;;;;;;;27.85;26.13;;;21.60;99.90;;;;;;5247520;28;20111;-70
2023/06/02 07:09:58;;;;;;;26.05;24.33;;;21.70;99.90;;;;;;5247211;28;20048;-67
2023/06/02 07:12:29;;;;;;;26.10;24.30;;;21.80;99.90;;;;;;5247262;28;20598;-70
2023/06/02 07:15:00;;;;;;;25.08;23.38;;;21.90;99.90;;;;;;5247164;28;20071;-71
2023/06/02 07:17:31;;;;;;;28.92;27.05;;;22.00;99.90;;;;;;5247100;28;20025;-71
2023/06/02 07:20:02;;;;;;;27.30;25.65;;;22.10;99.90;;;;;;5247088;28;20093;-71
2023/06/02 07:22:33;;;;;;;28.15;26.45;;;22.10;99.90;;;;;;5247125;28;20028;-66
2023/06/02 07:25:05;;;;;;;27.83;26.10;;;22.10;99.90;;;;;;5247048;28;20033;-71
2023/06/02 07:27:36;;;;;;;25.20;23.65;;;22.30;99.90;;;;;;5246955;28;20027;-70
2023/06/02 07:30:08;;;;;;;27.33;25.20;;;22.30;99.90;;;;;;5247046;28;20496;-71
2023/06/02 07:32:38;;;;;;;29.00;27.10;;;22.20;99.90;;;;;;5229073;28;20029;-71
2023/06/02 07:35:09;;;;;;;28.73;26.95;;;22.40;99.90;;;;;;5246927;28;20048;-70
2023/06/02 07:37:40;;;;;;;26.77;24.95;;;22.40;99.90;;;;;;5246921;28;20031;-70
2023/06/02 07:40:11;;;;;;;28.77;26.85;;;22.40;99.90;;;;;;5246731;28;20481;-70
2023/06/02 07:42:42;;;;;;;27.88;25.88;;;22.50;99.90;;;;;;5246882;28;20120;-70
2023/06/02 07:45:13;;;;;;;27.02;24.98;;;22.40;99.90;;;;;;5246603;28;20024;-71
2023/06/02 07:47:43;;;;;;;27.38;25.60;;;22.50;99.90;;;;;;5246254;28;20025;-71
2023/06/02 07:50:14;;;;;;;25.73;24.05;;;22.50;99.90;;;;;;5246731;28;20045;-71
2023/06/02 07:52:46;;;;;;;24.63;23.02;;;22.60;99.90;;;;;;5246747;28;20020;-71
2023/06/02 07:55:17;;;;;;;24.23;22.73;;;22.60;99.90;;;;;;5246813;28;20028;-70
2023/06/02 07:57:48;;;;;;;24.27;22.63;;;22.70;99.90;;;;;;5246693;28;20023;-72
2023/06/02 08:00:21;;;;;;;22.52;20.77;;;22.70;99.90;;;;;;5246606;28;20064;-71
2023/06/02 08:02:52;;;;;;;21.85;20.17;;;22.90;99.90;;;;;;5246626;28;20074;-67
2023/06/02 08:05:23;;;;;;;21.85;20.30;;;22.90;99.90;;;;;;5246681;28;20028;-71
2023/06/02 08:07:53;;;;;;;22.83;21.33;;;22.80;99.90;;;;;;5247289;28;20473;-70
2023/06/02 08:10:24;;;;;;;20.65;19.25;;;22.90;99.90;;;;;;5250535;28;20040;-71
2023/06/02 08:12:55;;;;;;;19.75;18.35;;;23.00;99.90;;;;;;5250687;28;20025;-71
2023/06/02 08:15:26;;;;;;;17.75;16.50;;;23.00;99.90;;;;;;5250601;28;20033;-66
2023/06/02 08:17:57;;;;;;;18.23;17.08;;;23.20;99.90;;;;;;5232413;28;20052;-67
2023/06/02 08:20:28;;;;;;;17.95;16.70;;;23.10;99.90;;;;;;5250264;28;20058;-66
2023/06/02 08:22:59;;;;;;;16.95;15.65;;;23.10;99.90;;;;;;5250367;28;20048;-71
2023/06/02 08:25:30;;;;;;;18.02;16.83;;;23.40;99.90;;;;;;5250314;28;20024;-70
2023/06/02 08:28:05;;;;;;;18.38;17.23;;;23.30;99.90;;;;;;5250218;28;20035;-70
2023/06/02 08:30:37;;;;;;;19.23;17.92;;;23.30;99.90;;;;;;5250313;28;20502;-67
2023/06/02 08:33:08;;;;;;;19.08;17.42;;;23.40;99.90;;;;;;5250167;28;20028;-71
2023/06/02 08:35:40;;;;;;;18.17;17.08;;;23.50;99.90;;;;;;5250152;28;20035;-70
2023/06/02 08:38:16;;;;;;;20.35;18.40;;;23.40;99.90;;;;;;5250124;28;20021;-71
2023/06/02 08:40:47;;;;;;;19.85;18.42;;;23.60;99.90;;;;;;5249971;28;20035;-66
2023/06/02 08:43:18;;;;;;;19.80;18.42;;;23.50;99.90;;;;;;5249986;28;20017;-67
2023/06/02 08:45:50;;;;;;;20.05;18.70;;;23.40;99.90;;;;;;5231794;28;20048;-70
2023/06/02 08:48:20;;;;;;;18.90;17.60;;;23.50;99.90;;;;;;5249523;28;20051;-70
2023/06/02 08:50:54;;;;;;;19.77;18.38;;;23.50;99.90;;;;;;5249817;28;20111;-71
2023/06/02 08:53:25;;;;;;;19.60;18.30;;;23.80;99.90;;;;;;5249640;28;20017;-67
2023/06/02 08:55:57;;;;;;;18.77;17.58;;;24.00;99.90;;;;;;5249609;28;20031;-67
2023/06/02 08:58:31;;;;;;;19.40;17.90;;;24.10;99.90;;;;;;5249691;28;20066;-67
2023/06/02 09:01:03;;;;;;;20.70;19.05;;;23.90;99.90;;;;;;5231645;28;20776;-71
2023/06/02 09:03:34;;;;;;;20.65;19.25;;;23.90;99.90;;;;;;5249415;28;20017;-70
2023/06/02 09:06:26;;;;;;;19.92;18.52;;;23.70;99.90;;;;;;5249430;28;20029;-71
2023/06/02 09:08:58;;;;;;;20.20;18.65;;;24.10;99.90;;;;;;5249255;28;20385;-71
2023/06/02 09:11:31;;;;;;;20.75;19.25;;;24.00;99.90;;;;;;5249284;28;20063;-69
2023/06/02 09:14:20;;;;;;;21.17;19.88;;;24.10;99.90;;;;;;5249446;28;20025;-71
2023/06/02 09:16:51;;;;;;;21.58;20.08;;;24.10;99.90;;;;;;5249167;28;20056;-70
2023/06/02 09:19:22;;;;;;;20.45;19.10;;;24.40;99.90;;;;;;5248665;28;20064;-70
2023/06/02 09:22:07;;;;;;;23.63;22.23;;;24.30;99.90;;;;;;5249085;28;20372;-71
2023/06/02 09:24:39;;;;;;;21.75;20.40;;;24.50;99.90;;;;;;5249095;28;20021;-71
2023/06/02 09:27:14;;;;;;;19.50;18.20;;;24.30;99.90;;;;;;5249165;28;20024;-71
2023/06/02 09:29:46;;;;;;;22.17;20.63;;;24.20;99.90;;;;;;5249369;28;20131;-70
2023/06/02 09:32:18;;;;;;;22.02;20.45;;;24.60;99.90;;;;;;5249252;28;20058;-71
2023/06/02 09:34:49;;;;;;;20.48;19.10;;;24.50;99.90;;;;;;5249001;28;20089;-71
2023/06/02 09:37:22;;;;;;;21.30;19.90;;;24.50;99.90;;;;;;5248947;28;20029;-70
2023/06/02 09:39:53;;;;;;;21.40;19.90;;;24.60;99.90;;;;;;5248771;28;20035;-71
2023/06/02 09:42:24;;;;;;;22.00;20.35;;;24.60;99.90;;;;;;5248855;28;20020;-71
2023/06/02 09:45:08;;;;;;;20.33;18.92;;;24.60;99.90;;;;;;5248690;28;20023;-69
2023/06/02 09:47:41;;;;;;;18.80;17.50;;;24.70;99.90;;;;;;5248422;28;20041;-71
2023/06/02 09:50:35;;;;;;;20.25;18.92;;;24.60;99.90;;;;;;5248535;28;20448;-70
2023/06/02 09:53:08;;;;;;;20.15;18.95;;;24.60;99.90;;;;;;5248611;28;20035;-70
2023/06/02 09:55:40;;;;;;;20.92;19.52;;;24.40;99.90;;;;;;5248460;28;20020;-70
2023/06/02 09:58:10;;;;;;;20.95;19.38;;;24.50;99.90;;;;;;5248421;28;20099;-71
2023/06/02 10:00:41;;;;;;;21.00;19.50;;;24.60;99.90;;;;;;5248288;28;20100;-71
2023/06/02 10:03:12;;;;;;;22.38;20.63;;;24.70;99.90;;;;;;5248289;28;20021;-71
2023/06/02 10:05:57;;;;;;;21.00;19.52;;;24.60;99.90;;;;;;5248255;28;20028;-71
2023/06/02 10:09:10;;;;;;;20.13;18.42;;;24.70;99.90;;;;;;5248108;28;20040;-71
2023/06/02 10:12:05;;;;;;;21.40;19.80;;;24.70;99.90;;;;;;5204459;28;20091;-71
2023/06/02 10:15:14;;;;;;;21.48;19.85;;;24.90;99.90;;;;;;5247556;28;20162;-67
2023/06/02 10:18:12;;;;;;;20.42;18.90;;;25.00;99.90;;;;;;5204456;28;20037;-70
2023/06/02 10:21:08;;;;;;;19.75;18.42;;;25.00;99.90;;;;;;5187857;28;20485;-71
2023/06/02 10:23:57;;;;;;;21.08;19.63;;;25.30;99.90;;;;;;5243049;28;20028;-70
2023/06/02 10:27:06;;;;;;;20.77;19.48;;;25.20;99.90;;;;;;5247934;28;20380;-69
2023/06/02 10:29:38;;;;;;;23.00;21.35;;;24.70;99.90;;;;;;5241839;28;20087;-71
2023/06/02 10:32:33;;;;;;;19.75;18.35;;;25.20;99.90;;;;;;5246962;28;20032;-71
2023/06/02 10:35:05;;;;;;;21.40;20.00;;;25.10;99.90;;;;;;5247643;28;20067;-66
2023/06/02 10:37:37;;;;;;;21.90;20.42;;;25.10;99.90;;;;;;5247610;28;20027;-70
2023/06/02 10:40:11;;;;;;;19.45;18.15;;;25.00;99.90;;;;;;5247605;28;20405;-66
2023/06/02 10:43:11;;;;;;;20.02;18.67;;;25.00;99.90;;;;;;5247746;28;20060;-71
2023/06/02 10:45:42;;;;;;;18.67;17.50;;;24.80;99.90;;;;;;5247488;28;20024;-70
2023/06/02 10:48:42;;;;;;;18.38;17.27;;;24.90;99.90;;;;;;5247282;28;20051;-71
2023/06/02 10:51:13;;;;;;;18.90;17.52;;;24.70;99.90;;;;;;5247664;28;20074;-71
2023/06/02 10:54:01;;;;;;;17.85;16.65;;;24.80;99.90;;;;;;5247480;28;20028;-71
2023/06/02 10:56:45;;;;;;;17.70;16.42;;;24.60;99.90;;;;;;5247485;28;20028;-71
2023/06/02 10:59:34;;;;;;;18.67;17.17;;;24.80;99.90;;;;;;5247433;28;20025;-70
2023/06/02 11:02:05;;;;;;;20.00;18.40;;;25.10;99.90;;;;;;5247433;28;20089;-70
2023/06/02 11:04:42;;;;;;;20.45;19.10;;;25.30;99.90;;;;;;5247255;28;20040;-70
2023/06/02 11:07:25;;;;;;;21.73;20.05;;;25.10;99.90;;;;;;5247341;28;20036;-71
2023/06/02 11:09:59;;;;;;;21.15;19.75;;;25.40;99.90;;;;;;5229249;28;20492;-71
2023/06/02 11:12:54;;;;;;;19.67;18.48;;;25.30;99.90;;;;;;5247164;28;20013;-71
2023/06/02 11:15:25;;;;;;;20.20;18.70;;;24.90;99.90;;;;;;5247054;28;20062;-70
2023/06/02 11:17:56;;;;;;;19.77;18.48;;;25.20;99.90;;;;;;5246929;28;20025;-70
2023/06/02 11:20:37;;;;;;;20.50;19.30;;;25.10;99.90;;;;;;5247044;28;20027;-71
2023/06/02 11:23:10;;;;;;;19.80;17.95;;;25.30;99.90;;;;;;5247155;28;20385;-71
2023/06/02 11:25:41;;;;;;;20.42;19.00;;;25.60;99.90;;;;;;5247122;28;20108;-70
2023/06/02 11:28:22;;;;;;;20.38;19.02;;;25.40;99.90;;;;;;5246985;28;20020;-71
2023/06/02 11:31:11;;;;;;;21.05;19.42;;;25.60;99.90;;;;;;5247160;28;20388;-67
2023/06/02 11:33:48;;;;;;;20.27;18.98;;;25.60;99.90;;;;;;5247123;28;20017;-71
2023/06/02 11:36:26;;;;;;;21.20;19.80;;;25.70;99.90;;;;;;5247041;28;20642;-66
2023/06/02 11:39:04;;;;;;;21.90;20.55;;;25.70;99.90;;;;;;5246872;28;20107;-70
2023/06/02 11:41:35;;;;;;;20.65;19.35;;;25.60;99.90;;;;;;5246867;28;20374;-71
2023/06/02 11:44:10;;;;;;;21.70;20.40;;;25.70;99.90;;;;;;5249569;28;20024;-71
2023/06/02 11:46:41;;;;;;;23.15;21.33;;;25.30;99.90;;;;;;5251011;28;20025;-70
2023/06/02 11:49:14;;;;;;;22.63;21.20;;;25.80;99.90;;;;;;5250732;28;20052;-71
2023/06/02 11:51:45;;;;;;;24.27;22.70;;;25.70;99.90;;;;;;5250898;28;20031;-70
2023/06/02 11:54:16;;;;;;;24.73;23.02;;;25.80;99.90;;;;;;5250936;28;20021;-71
2023/06/02 11:56:47;;;;;;;22.60;21.30;;;25.70;99.90;;;;;;5250988;28;20024;-71
2023/06/02 11:59:18;;;;;;;23.15;21.67;;;25.70;99.90;;;;;;5250838;28;20052;-71
2023/06/02 12:01:49;;;;;;;22.08;20.70;;;25.90;99.90;;;;;;5250936;28;20052;-71
2023/06/02 12:04:20;;;;;;;23.05;21.55;;;25.90;99.90;;;;;;5250928;28;20029;-70
2023/06/02 12:06:52;;;;;;;25.85;24.15;;;25.90;99.90;;;;;;5250781;28;20067;-71
2023/06/02 12:09:24;;;;;;;24.13;22.52;;;26.10;99.90;;;;;;5250613;28;20029;-71
2023/06/02 12:12:07;;;;;;;26.20;24.45;;;26.00;99.90;;;;;;5250633;28;20020;-69
2023/06/02 12:14:38;;;;;;;24.15;22.50;;;25.80;99.90;;;;;;5250496;28;20408;-66
2023/06/02 12:17:09;;;;;;;20.67;19.33;;;25.40;99.90;;;;;;5250522;28;20047;-70
2023/06/02 12:19:40;;;;;;;21.80;20.25;;;25.10;99.90;;;;;;5250322;28;20024;-69
2023/06/02 12:22:13;;;;;;;20.52;19.08;;;25.10;99.90;;;;;;5250383;28;20031;-70
2023/06/02 12:24:44;;;;;;;22.95;21.10;;;25.10;99.90;;;;;;5250256;28;20024;-71
2023/06/02 12:27:23;;;;;;;20.65;19.40;;;25.20;99.90;;;;;;5250408;28;20031;-69
2023/06/02 12:29:54;;;;;;;21.98;20.58;;;25.40;99.90;;;;;;5250162;28;20040;-71
2023/06/02 12:32:26;;;;;;;22.13;20.25;;;25.40;99.90;;;;;;5232285;28;20028;-69
2023/06/02 12:34:57;;;;;;;22.48;20.88;;;25.50;99.90;;;;;;5250058;28;20078;-71
2023/06/02 12:37:29;;;;;;;25.13;23.42;;;25.70;99.90;;;;;;5250082;28;20046;-70
2023/06/02 12:40:00;;;;;;;24.48;22.88;;;25.30;99.90;;;;;;5249887;28;20032;-70
2023/06/02 12:42:31;;;;;;;24.35;22.77;;;25.50;99.90;;;;;;5249863;28;20027;-71
2023/06/02 12:45:02;;;;;;;23.77;22.30;;;25.60;99.90;;;;;;5249740;28;20038;-71
2023/06/02 12:47:34;;;;;;;23.25;21.70;;;25.50;99.90;;;;;;5249527;28;20120;-67
2023/06/02 12:50:08;;;;;;;22.98;21.50;;;25.30;99.90;;;;;;5249751;28;20376;-70
2023/06/02 12:52:39;;;;;;;22.55;21.13;;;25.30;99.90;;;;;;5249741;28;20577;-71
2023/06/02 12:55:10;;;;;;;23.40;21.58;;;25.40;99.90;;;;;;5248541;28;20040;-70
2023/06/02 12:57:41;;;;;;;23.83;22.33;;;25.60;99.90;;;;;;5249551;28;20024;-71
2023/06/02 13:00:13;;;;;;;24.08;22.27;;;25.40;99.90;;;;;;5249486;28;20024;-71